createdAt,value
2022-09-12T00:02:09.156Z,411.7324414715719
2022-09-12T00:11:38.700Z,400.6454849498328
2022-09-12T00:18:08.972Z,413.6588628762542
2022-09-12T00:24:47.478Z,411.8494983277592
2022-09-12T00:31:16.167Z,408.88628762541805
2022-09-12T00:37:46.068Z,431.4882943143813
2022-09-12T00:54:54.035Z,427.4180602006689
2022-09-12T01:07:16.132Z,452.69565217391306
2022-09-12T01:13:44.886Z,467.505016722408
2022-09-12T01:20:12.967Z,465.33110367892976
2022-09-12T01:26:50.646Z,483.03678929765886
2022-09-12T01:35:11.056Z,460.84615384615387
2022-09-12T01:41:38.727Z,462.87959866220734
2022-09-12T01:53:04.805Z,473.571906354515
2022-09-12T02:04:45.813Z,481.29765886287623
2022-09-12T02:16:06.110Z,495.3478260869565
2022-09-12T02:22:34.679Z,531.6622073578595
2022-09-12T02:38:35.820Z,597.247491638796
2022-09-12T02:45:03.983Z,580.8963210702341
2022-09-12T02:51:31.853Z,574.9832775919732
2022-09-12T02:58:00.596Z,575.1872909698997
2022-09-12T03:05:59.520Z,576.7224080267558
2022-09-12T03:12:27.027Z,609.9565217391304
2022-09-12T03:18:54.983Z,634.314381270903
2022-09-12T03:25:23.354Z,641.8361204013378
2022-09-12T03:31:53.386Z,638.5083612040133
2022-09-12T03:38:23.098Z,710.989966555184
2022-09-12T03:44:52.598Z,686.7324414715719
2022-09-12T03:51:23.838Z,725.0702341137123
2022-09-12T03:59:28.164Z,761.1036789297659
2022-09-12T04:05:58.105Z,763.4581939799331
2022-09-12T04:22:47.592Z,826.7926421404683
2022-09-12T04:30:28.936Z,869.9130434782609
2022-09-12T04:36:59.398Z,875.2742474916388
2022-09-12T04:43:28.673Z,915.8227424749164
2022-09-12T04:49:58.794Z,958.7157190635452
2022-09-12T04:56:25.794Z,988.2140468227425
2022-09-12T05:02:54.755Z,1009.5451505016722
2022-09-12T05:09:24.134Z,965.5016722408027
2022-09-12T05:21:15.374Z,916.0401337792642
2022-09-12T05:30:51.004Z,896.2374581939799
2022-09-12T05:37:20.213Z,910.989966555184
2022-09-12T05:48:20.385Z,831.2541806020067
2022-09-12T05:54:49.004Z,810.123745819398
2022-09-12T06:01:16.778Z,789.0401337792642
2022-09-12T06:16:29.302Z,785.9030100334448
2022-09-12T06:31:07.414Z,790.9966555183946
2022-09-12T06:43:51.013Z,794.1505016722408
2022-09-12T06:50:18.254Z,813.6220735785953
2022-09-12T06:56:45.565Z,813.428093645485
2022-09-12T07:03:13.087Z,848.257525083612
2022-09-12T07:12:20.354Z,866.6153846153846
2022-09-12T07:24:51.998Z,943.9397993311037
2022-09-12T07:31:19.490Z,968.7926421404683
2022-09-12T07:37:46.483Z,995.8160535117057
2022-09-12T07:44:13.295Z,1026.3979933110368
2022-09-12T07:50:44.952Z,1011.4715719063545
2022-09-12T07:57:12.681Z,1033.23745819398
2022-09-12T08:03:39.489Z,1001.3779264214047
2022-09-12T08:10:06.854Z,950.6588628762541
2022-09-12T08:16:33.706Z,951.4648829431438
2022-09-12T08:23:08.576Z,929.5083612040133
2022-09-12T08:35:17.078Z,923.8227424749164
2022-09-12T08:41:44.225Z,944.6822742474916
2022-09-12T08:50:10.806Z,943.1070234113712
2022-09-12T09:01:14.226Z,936.7324414715719
2022-09-12T09:07:44.280Z,918.5852842809364
2022-09-12T09:15:34.033Z,950.9598662207358
2022-09-12T09:24:16.481Z,937.6254180602007
2022-09-12T09:45:47.979Z,859.2240802675585
2022-09-12T09:52:15.713Z,820.2541806020067
2022-09-12T10:08:30.664Z,729.876254180602
2022-09-12T10:14:57.459Z,606.9732441471572
2022-09-12T10:21:24.876Z,564.2274247491639
2022-09-12T10:28:01.248Z,553.3879598662207
2022-09-12T10:34:57.277Z,526.9698996655518
2022-09-12T10:42:11.510Z,520.742474916388
2022-09-12T10:48:38.711Z,523.9197324414715
2022-09-12T10:55:06.423Z,446.8361204013378
2022-09-12T11:01:34.019Z,418.7926421404682
2022-09-12T11:08:01.577Z,381.66889632107024
2022-09-12T11:14:48.438Z,372.6588628762542
2022-09-12T11:21:16.644Z,354.9297658862876
2022-09-12T11:28:31.292Z,350.11371237458195
2022-09-12T11:41:14.601Z,304.505016722408
2022-09-12T11:50:36.951Z,309.24414715719064
2022-09-12T11:58:05.250Z,307.5217391304348
2022-09-12T12:04:59.149Z,312.75585284280936
2022-09-12T12:11:22.387Z,274.82608695652175
2022-09-12T12:17:46.017Z,241.7859531772575
2022-09-12T12:24:13.295Z,222.6789297658863
2022-09-12T12:30:37.212Z,216.48160535117057
2022-09-12T12:52:14.622Z,175.60535117056855
2022-09-12T12:58:38.298Z,175.2408026755853
2022-09-12T13:05:01.368Z,183.8963210702341
2022-09-12T13:11:24.310Z,179.1705685618729
2022-09-12T13:17:53.252Z,178.69230769230768
2022-09-12T13:24:15.955Z,195.6020066889632
2022-09-12T13:36:00.736Z,175.1170568561873
2022-09-12T13:44:46.481Z,175.70903010033445
2022-09-12T13:51:10.137Z,180.66220735785953
2022-09-12T13:57:34.887Z,170.66555183946488
2022-09-12T14:04:03.431Z,177.63210702341138
2022-09-12T14:10:28.342Z,170.45150501672242
2022-09-12T14:18:12.653Z,223.14046822742475
2022-09-12T14:24:36.387Z,209.68896321070235
2022-09-12T14:33:32.245Z,176.69899665551839
2022-09-12T14:47:37.810Z,190.7859531772575
2022-09-12T14:54:00.890Z,176.6789297658863
2022-09-12T15:00:24.952Z,189.4247491638796
2022-09-12T15:08:15.417Z,195.561872909699
2022-09-12T15:14:39.218Z,195.11371237458195
2022-09-12T15:21:03.133Z,205.8695652173913
2022-09-12T15:27:25.833Z,216.1371237458194
2022-09-12T15:33:49.177Z,236.09030100334448
2022-09-12T15:40:12.674Z,235.4314381270903
2022-09-12T15:46:37.336Z,229.438127090301
2022-09-12T15:53:00.885Z,240.01003344481606
2022-09-12T15:59:23.866Z,221.89966555183946
2022-09-12T16:09:55.934Z,215.16053511705687
2022-09-12T16:16:18.647Z,227.63210702341138
2022-09-12T16:22:42.758Z,240.94314381270902
2022-09-12T16:29:06.286Z,261.10702341137124
2022-09-12T16:35:30.059Z,312.9933110367893
2022-09-12T16:41:54.037Z,263.9096989966555
2022-09-12T16:50:18.347Z,261.1404682274248
2022-09-12T16:56:42.442Z,257.876254180602
2022-09-12T17:03:07.530Z,275.9799331103679
2022-09-12T17:09:32.189Z,248.8695652173913
2022-09-12T17:15:56.717Z,270.72909698996654
2022-09-12T17:26:24.396Z,286.1438127090301
2022-09-12T17:32:50.113Z,274.8829431438127
2022-09-12T17:39:14.290Z,280.1705685618729
2022-09-12T17:46:30.261Z,279.4816053511706
2022-09-12T17:52:58.798Z,288.44816053511704
2022-09-12T17:59:32.532Z,300.2876254180602
2022-09-12T18:12:16.348Z,326.9799331103679
2022-09-12T18:18:57.590Z,320.685618729097
2022-09-12T18:25:29.131Z,404.61872909698997
2022-09-12T18:32:00.998Z,454.45484949832775
2022-09-12T18:42:42.247Z,376.2140468227425
2022-09-12T18:49:12.517Z,363.9732441471572
2022-09-12T18:55:57.562Z,365.4515050167224
2022-09-12T19:05:54.428Z,442.12709030100336
2022-09-12T19:12:26.685Z,404.3779264214047
2022-09-12T19:25:15.737Z,359.10033444816054
2022-09-12T19:31:48.434Z,343.371237458194
2022-09-12T19:39:57.433Z,361.52508361204013
2022-09-12T19:46:39.711Z,452.1471571906354
2022-09-12T19:53:22.891Z,344.1371237458194
2022-09-12T20:05:00.432Z,374.2909698996655
2022-09-12T20:11:35.300Z,334.7725752508361
2022-09-12T20:18:08.695Z,338.7056856187291
2022-09-12T20:24:35.664Z,316.24414715719064
2022-09-12T20:31:04.482Z,295.38461538461536
2022-09-12T20:40:04.307Z,303.1705685618729
2022-09-12T20:46:34.480Z,317.25752508361205
2022-09-12T20:53:04.359Z,303.61538461538464
2022-09-12T20:59:33.343Z,303.16722408026754
2022-09-12T21:06:01.798Z,301.53177257525084
2022-09-12T21:12:29.982Z,292.01672240802674
2022-09-12T21:18:56.734Z,296.81939799331104
2022-09-12T21:25:24.072Z,308.04682274247494
2022-09-12T21:31:50.710Z,305.4816053511706
2022-09-12T21:38:17.307Z,306.0200668896321
2022-09-12T21:44:43.327Z,306.2207357859532
2022-09-12T21:51:10.613Z,293.8829431438127
2022-09-12T21:57:37.224Z,292.5150501672241
2022-09-12T22:08:53.543Z,290.6555183946488
2022-09-12T22:24:51.344Z,303.5886287625418
2022-09-12T22:31:19.716Z,321.69565217391306
2022-09-12T22:37:49.328Z,306.3511705685619
2022-09-12T22:44:16.678Z,294.7892976588629
2022-09-12T22:50:43.206Z,300.04013377926424
2022-09-12T23:01:22.952Z,288.61204013377926
2022-09-12T23:07:49.435Z,291.2040133779264
2022-09-12T23:14:16.517Z,310.7658862876254
2022-09-12T23:20:43.294Z,293.5752508361204
2022-09-12T23:27:14.912Z,293.123745819398
2022-09-12T23:33:41.103Z,286.4581939799331
2022-09-12T23:40:08.319Z,307.876254180602
2022-09-12T23:47:07.148Z,318.29765886287623
2022-09-12T23:53:34.753Z,311.89297658862876
